createdAt,value
2022-08-10T00:00:09.811Z,56.80
2022-08-10T00:02:36.747Z,57.10
2022-08-10T00:05:04.302Z,57.00
2022-08-10T00:07:31.173Z,57.30
2022-08-10T00:09:58.174Z,57.20
2022-08-10T00:12:54.008Z,57.20
2022-08-10T00:15:52.845Z,57.20
2022-08-10T00:18:00.858Z,57.40
2022-08-10T00:20:27.772Z,57.60
2022-08-10T00:22:57.432Z,57.50
2022-08-10T00:25:25.146Z,57.60
2022-08-10T00:28:03.281Z,57.40
2022-08-10T00:30:30.873Z,57.50
2022-08-10T00:32:57.662Z,57.60
2022-08-10T00:35:24.420Z,57.80
2022-08-10T00:37:56.304Z,57.80
2022-08-10T00:40:36.868Z,57.80
2022-08-10T00:43:05.946Z,58.00
2022-08-10T00:45:33.014Z,58.00
2022-08-10T00:47:59.765Z,58.80
2022-08-10T00:50:26.599Z,58.80
2022-08-10T00:52:53.577Z,58.30
2022-08-10T00:55:20.942Z,58.40
2022-08-10T00:57:54.989Z,58.50
2022-08-10T01:00:23.013Z,58.60
2022-08-10T01:02:49.855Z,58.70
2022-08-10T01:05:16.872Z,58.80
2022-08-10T01:08:03.054Z,58.80
2022-08-10T01:10:38.186Z,58.90
2022-08-10T01:13:21.021Z,58.80
2022-08-10T01:16:00.137Z,59.00
2022-08-10T01:18:27.050Z,59.10
2022-08-10T01:21:24.283Z,59.10
2022-08-10T01:24:03.754Z,59.50
2022-08-10T01:26:59.787Z,59.20
2022-08-10T01:29:53.810Z,59.40
2022-08-10T01:32:33.179Z,59.20
2022-08-10T01:35:11.643Z,59.60
2022-08-10T01:37:51.899Z,60.60
2022-08-10T01:40:25.935Z,59.80
2022-08-10T01:42:55.948Z,60.70
2022-08-10T01:45:28.202Z,60.70
2022-08-10T01:48:16.961Z,59.90
2022-08-10T01:50:59.585Z,60.10
2022-08-10T01:53:52.096Z,60.10
2022-08-10T01:56:21.584Z,60.20
2022-08-10T01:58:56.055Z,60.30
2022-08-10T02:01:28.436Z,60.50
2022-08-10T02:04:05.134Z,60.50
2022-08-10T02:06:37.059Z,60.70
2022-08-10T02:09:07.110Z,60.70
2022-08-10T02:12:05.900Z,60.70
2022-08-10T02:14:33.452Z,60.80
2022-08-10T02:17:06.186Z,60.90
2022-08-10T02:19:35.720Z,60.80
2022-08-10T02:22:36.308Z,60.90
2022-08-10T02:24:52.611Z,61.00
2022-08-10T02:27:23.264Z,61.20
2022-08-10T02:29:53.190Z,61.20
2022-08-10T02:32:35.894Z,61.20
2022-08-10T02:35:06.876Z,61.40
2022-08-10T02:37:37.416Z,61.30
2022-08-10T02:40:04.870Z,61.40
2022-08-10T02:45:22.694Z,61.60
2022-08-10T02:45:33.813Z,61.80
2022-08-10T02:48:07.132Z,61.80
2022-08-10T02:50:36.542Z,61.80
2022-08-10T02:53:54.713Z,61.90
2022-08-10T02:56:16.380Z,61.90
2022-08-10T02:58:53.218Z,62.10
2022-08-10T03:01:25.893Z,62.10
2022-08-10T03:04:05.152Z,62.20
2022-08-10T03:06:38.540Z,62.10
2022-08-10T03:09:09.515Z,62.10
2022-08-10T03:12:37.841Z,62.40
2022-08-10T03:14:26.706Z,62.40
2022-08-10T03:16:55.497Z,62.50
2022-08-10T03:20:35.414Z,62.60
2022-08-10T03:22:12.632Z,62.70
2022-08-10T03:24:41.256Z,62.60
2022-08-10T03:27:09.232Z,62.70
2022-08-10T03:30:23.185Z,62.90
2022-08-10T03:32:25.629Z,63.00
2022-08-10T03:34:53.803Z,62.80
2022-08-10T03:37:20.759Z,63.10
2022-08-10T03:39:47.539Z,63.10
2022-08-10T03:42:15.548Z,63.10
2022-08-10T03:44:45.214Z,63.40
2022-08-10T03:47:17.586Z,63.30
2022-08-10T03:49:47.420Z,63.60
2022-08-10T03:52:16.521Z,63.80
2022-08-10T03:54:43.575Z,63.90
2022-08-10T03:57:10.894Z,63.90
2022-08-10T03:59:38.275Z,64.00
2022-08-10T04:02:45.592Z,64.10
2022-08-10T04:04:55.339Z,64.30
2022-08-10T04:07:22.245Z,64.30
2022-08-10T04:09:54.915Z,64.40
2022-08-10T04:12:22.946Z,64.50
2022-08-10T04:14:52.925Z,64.50
2022-08-10T04:18:01.281Z,64.70
2022-08-10T04:20:38.003Z,64.80
2022-08-10T04:23:19.809Z,64.40
2022-08-10T04:25:46.789Z,64.50
2022-08-10T04:28:14.091Z,64.60
2022-08-10T04:30:41.912Z,64.80
2022-08-10T04:33:11.090Z,65.00
2022-08-10T04:35:39.081Z,65.20
2022-08-10T04:38:06.857Z,65.00
2022-08-10T04:40:33.668Z,64.90
2022-08-10T04:43:10.469Z,65.10
2022-08-10T04:45:49.928Z,65.30
2022-08-10T04:48:42.575Z,65.30
2022-08-10T04:51:17.675Z,65.20
2022-08-10T04:54:04.777Z,65.30
2022-08-10T04:56:35.371Z,65.60
2022-08-10T04:59:02.149Z,65.60
2022-08-10T05:02:30.214Z,65.70
2022-08-10T05:04:36.542Z,65.90
2022-08-10T05:07:04.862Z,65.70
2022-08-10T05:09:31.719Z,65.80
2022-08-10T05:11:58.485Z,65.90
2022-08-10T05:14:25.187Z,66.00
2022-08-10T05:16:51.910Z,66.20
2022-08-10T05:19:21.196Z,66.00
2022-08-10T05:22:06.358Z,66.20
2022-08-10T05:24:33.337Z,66.30
2022-08-10T05:27:09.285Z,66.30
2022-08-10T05:29:37.515Z,66.40
2022-08-10T05:32:04.772Z,66.40
2022-08-10T05:34:34.682Z,66.60
2022-08-10T05:37:01.971Z,66.70
2022-08-10T05:39:30.558Z,66.80
2022-08-10T05:42:01.567Z,67.00
2022-08-10T05:44:29.744Z,66.90
2022-08-10T05:46:56.934Z,67.00
2022-08-10T05:49:23.761Z,67.00
2022-08-10T05:51:51.355Z,67.10
2022-08-10T05:54:18.385Z,67.30
2022-08-10T05:56:55.099Z,67.40
2022-08-10T06:00:12.614Z,67.50
2022-08-10T06:02:31.816Z,67.70
2022-08-10T06:05:23.394Z,67.80
2022-08-10T06:08:03.090Z,67.50
2022-08-10T06:10:32.997Z,67.80
2022-08-10T06:13:29.987Z,67.90
2022-08-10T06:16:02.401Z,67.90
2022-08-10T06:18:30.040Z,67.90
2022-08-10T06:20:58.520Z,68.00
2022-08-10T06:23:29.330Z,68.20
2022-08-10T06:26:10.367Z,68.10
2022-08-10T06:29:01.998Z,68.20
2022-08-10T06:31:48.009Z,68.20
2022-08-10T06:34:24.330Z,68.20
2022-08-10T06:36:53.261Z,68.30
2022-08-10T06:39:33.702Z,68.20
2022-08-10T06:42:22.144Z,68.40
2022-08-10T06:44:54.448Z,68.40
2022-08-10T06:47:26.546Z,68.40
2022-08-10T06:50:00.078Z,68.50
2022-08-10T06:52:29.976Z,68.50
2022-08-10T06:54:59.376Z,68.50
2022-08-10T06:57:31.110Z,68.50
2022-08-10T07:00:01.061Z,68.40
2022-08-10T07:02:50.640Z,69.20
2022-08-10T07:05:25.193Z,68.10
2022-08-10T07:07:56.983Z,68.20
2022-08-10T07:10:45.570Z,68.30
2022-08-10T07:13:15.799Z,69.20
2022-08-10T07:16:03.365Z,70.10
2022-08-10T07:18:32.656Z,68.70
2022-08-10T07:21:02.101Z,66.50
2022-08-10T07:23:56.939Z,64.30
2022-08-10T07:26:20.047Z,61.80
2022-08-10T07:28:50.265Z,59.70
2022-08-10T07:31:56.425Z,58.10
2022-08-10T07:34:09.551Z,56.30
2022-08-10T07:36:39.383Z,55.00
2022-08-10T07:39:07.403Z,54.00
2022-08-10T07:41:41.358Z,52.90
2022-08-10T07:44:11.055Z,51.90
2022-08-10T07:46:44.557Z,50.70
2022-08-10T07:49:19.415Z,49.80
2022-08-10T07:51:54.937Z,49.40
2022-08-10T07:54:24.450Z,48.80
2022-08-10T07:56:54.314Z,48.00
2022-08-10T07:59:35.541Z,47.70
2022-08-10T08:02:05.130Z,47.50
2022-08-10T08:04:34.063Z,46.50
2022-08-10T08:07:04.512Z,46.10
2022-08-10T08:09:33.625Z,46.00
2022-08-10T08:12:01.902Z,45.40
2022-08-10T08:14:29.908Z,45.40
2022-08-10T08:16:58.582Z,45.00
2022-08-10T08:19:28.397Z,45.20
2022-08-10T08:24:05.991Z,45.00
2022-08-10T08:24:52.448Z,45.30
2022-08-10T08:27:21.158Z,45.30
2022-08-10T08:29:51.084Z,44.90
2022-08-10T08:32:22.242Z,44.90
2022-08-10T08:34:52.610Z,44.60
2022-08-10T08:38:33.327Z,44.50
2022-08-10T08:40:16.562Z,44.00
2022-08-10T08:43:04.665Z,44.10
2022-08-10T08:45:48.268Z,43.90
2022-08-10T08:48:56.820Z,43.10
2022-08-10T08:52:09.442Z,43.30
2022-08-10T08:54:38.240Z,43.00
2022-08-10T08:57:45.678Z,42.50
2022-08-10T09:00:35.194Z,42.10
2022-08-10T09:03:24.997Z,42.10
2022-08-10T09:06:15.786Z,41.60
2022-08-10T09:09:17.911Z,41.80
2022-08-10T09:12:13.296Z,41.90
2022-08-10T09:15:40.481Z,40.80
2022-08-10T09:18:32.519Z,41.10
2022-08-10T09:21:58.548Z,40.60
2022-08-10T09:24:58.684Z,40.50
2022-08-10T09:27:44.192Z,40.50
2022-08-10T09:30:29.081Z,39.80
2022-08-10T09:36:20.093Z,38.40
2022-08-10T09:36:20.493Z,39.10
2022-08-10T09:40:56.531Z,38.50
2022-08-10T09:42:42.598Z,38.10
2022-08-10T09:45:38.675Z,38.50
2022-08-10T09:48:30.330Z,37.90
2022-08-10T09:51:45.926Z,36.90
2022-08-10T09:54:54.689Z,37.80
2022-08-10T09:57:44.725Z,36.60
2022-08-10T10:00:17.778Z,36.50
2022-08-10T10:03:09.145Z,36.10
2022-08-10T10:06:13.277Z,35.30
2022-08-10T10:08:58.523Z,36.00
2022-08-10T10:11:47.795Z,35.40
2022-08-10T10:14:35.578Z,34.10
2022-08-10T10:17:17.249Z,34.80
2022-08-10T10:20:02.708Z,34.40
2022-08-10T10:22:42.715Z,34.60
2022-08-10T10:25:23.905Z,33.50
2022-08-10T10:28:25.667Z,34.30
2022-08-10T10:31:38.359Z,33.80
2022-08-10T10:34:29.419Z,32.80
2022-08-10T10:36:59.840Z,33.60
2022-08-10T10:39:27.449Z,32.00
2022-08-10T10:42:47.120Z,32.30
2022-08-10T10:45:19.535Z,32.60
2022-08-10T10:48:07.724Z,32.00
2022-08-10T10:51:09.989Z,31.80
2022-08-10T10:53:56.963Z,32.20
2022-08-10T10:57:04.426Z,31.30
2022-08-10T10:59:55.931Z,31.10
2022-08-10T11:02:36.622Z,30.70
2022-08-10T11:05:20.490Z,30.70
2022-08-10T11:07:53.501Z,31.30
2022-08-10T11:10:46.249Z,30.50
2022-08-10T11:14:26.526Z,30.50
2022-08-10T11:17:14.496Z,30.50
2022-08-10T11:20:15.580Z,30.20
2022-08-10T11:22:59.949Z,30.60
2022-08-10T11:25:32.494Z,30.70
2022-08-10T11:28:20.576Z,29.70
2022-08-10T11:31:01.206Z,30.00
2022-08-10T11:36:53.334Z,29.60
2022-08-10T11:39:25.388Z,29.70
2022-08-10T11:42:18.499Z,29.40
2022-08-10T11:45:00.189Z,29.00
2022-08-10T11:47:44.939Z,28.60
2022-08-10T11:50:20.029Z,28.50
2022-08-10T11:52:54.163Z,28.80
2022-08-10T11:55:23.940Z,28.40
2022-08-10T11:57:55.864Z,27.70
2022-08-10T12:00:32.322Z,28.40
2022-08-10T12:03:03.885Z,29.00
2022-08-10T12:05:54.015Z,28.00
2022-08-10T12:10:02.426Z,27.70
2022-08-10T12:11:24.266Z,27.70
2022-08-10T12:14:20.342Z,27.80
2022-08-10T12:16:52.567Z,28.00
2022-08-10T12:19:28.124Z,27.80
2022-08-10T12:22:06.230Z,27.60
2022-08-10T12:24:39.028Z,27.50
2022-08-10T12:27:24.023Z,28.00
2022-08-10T12:30:03.269Z,27.60
2022-08-10T12:32:58.803Z,27.60
2022-08-10T12:35:41.944Z,27.60
2022-08-10T12:38:35.745Z,27.30
2022-08-10T12:41:45.070Z,27.40
2022-08-10T12:44:41.143Z,26.90
2022-08-10T12:47:19.305Z,26.90
2022-08-10T12:50:23.793Z,27.10
2022-08-10T12:52:55.408Z,27.10
2022-08-10T12:55:23.640Z,26.90
2022-08-10T12:57:53.835Z,26.70
2022-08-10T13:00:26.556Z,26.30
2022-08-10T13:02:54.212Z,26.10
2022-08-10T13:05:25.438Z,25.90
2022-08-10T13:08:26.477Z,26.10
2022-08-10T13:11:03.313Z,26.00
2022-08-10T13:13:36.865Z,25.70
2022-08-10T13:16:05.844Z,26.10
2022-08-10T13:18:39.315Z,25.90
2022-08-10T13:21:19.849Z,25.70
2022-08-10T13:24:04.933Z,25.30
2022-08-10T13:26:37.592Z,25.70
2022-08-10T13:29:26.434Z,25.70
2022-08-10T13:32:04.051Z,25.40
2022-08-10T13:34:44.685Z,25.50
2022-08-10T13:37:16.154Z,25.20
2022-08-10T13:39:58.291Z,25.50
2022-08-10T13:42:38.414Z,24.80
2022-08-10T13:45:17.398Z,24.90
2022-08-10T13:47:49.593Z,25.00
2022-08-10T13:50:33.297Z,25.20
2022-08-10T13:53:06.850Z,25.10
2022-08-10T13:55:55.046Z,24.90
2022-08-10T13:58:34.189Z,25.00
2022-08-10T14:01:09.069Z,24.90
2022-08-10T14:03:38.109Z,25.10
2022-08-10T14:06:07.475Z,24.90
2022-08-10T14:08:36.042Z,25.50
2022-08-10T14:11:11.155Z,24.90
2022-08-10T14:13:46.015Z,24.90
2022-08-10T14:16:14.181Z,24.80
2022-08-10T14:18:44.784Z,25.10
2022-08-10T14:21:12.875Z,25.10
2022-08-10T14:23:52.383Z,24.80
2022-08-10T14:26:29.436Z,24.80
2022-08-10T14:29:10.745Z,25.20
2022-08-10T14:32:01.883Z,25.00
2022-08-10T14:36:16.159Z,24.60
2022-08-10T14:37:37.478Z,24.70
2022-08-10T14:40:07.817Z,24.80
2022-08-10T14:42:49.293Z,24.60
2022-08-10T14:45:29.545Z,24.60
2022-08-10T14:48:18.299Z,24.80
2022-08-10T14:50:56.203Z,24.90
2022-08-10T14:53:30.126Z,24.70
2022-08-10T14:56:11.316Z,24.80
2022-08-10T14:59:05.784Z,24.70
2022-08-10T15:02:01.014Z,24.90
2022-08-10T15:04:24.723Z,24.90
2022-08-10T15:07:02.630Z,24.60
2022-08-10T15:10:01.068Z,24.50
2022-08-10T15:12:27.121Z,24.60
2022-08-10T15:14:58.627Z,24.60
2022-08-10T15:17:35.307Z,24.50
2022-08-10T15:20:28.748Z,24.80
2022-08-10T15:23:08.337Z,24.70
2022-08-10T15:25:59.395Z,24.70
2022-08-10T15:28:30.628Z,24.80
2022-08-10T15:31:19.554Z,24.80
2022-08-10T15:34:08.505Z,25.10
2022-08-10T15:37:17.038Z,25.00
2022-08-10T15:40:20.936Z,25.00
2022-08-10T15:42:59.656Z,25.10
2022-08-10T15:45:26.801Z,24.80
2022-08-10T15:48:03.407Z,24.70
2022-08-10T15:50:43.651Z,24.70
2022-08-10T15:53:18.657Z,24.70
2022-08-10T15:55:59.515Z,24.80
2022-08-10T15:58:40.071Z,24.70
2022-08-10T16:02:14.482Z,24.80
2022-08-10T16:04:32.320Z,25.00
2022-08-10T16:07:06.251Z,24.80
2022-08-10T16:10:22.148Z,24.90
2022-08-10T16:12:36.666Z,25.00
2022-08-10T16:15:17.560Z,25.30
2022-08-10T16:17:56.169Z,25.40
2022-08-10T16:20:31.152Z,25.50
2022-08-10T16:23:02.142Z,25.20
2022-08-10T16:25:48.327Z,25.30
2022-08-10T16:28:23.360Z,25.40
2022-08-10T16:30:55.680Z,25.50
2022-08-10T16:33:54.287Z,25.60
2022-08-10T16:36:18.394Z,25.70
2022-08-10T16:38:48.306Z,25.60
2022-08-10T16:42:02.160Z,25.60
2022-08-10T16:44:07.407Z,25.70
2022-08-10T16:46:34.863Z,25.70
2022-08-10T16:49:02.591Z,25.90
2022-08-10T16:51:30.710Z,26.10
2022-08-10T16:54:03.155Z,26.10
2022-08-10T16:56:49.132Z,26.20
2022-08-10T16:59:21.145Z,26.30
2022-08-10T17:01:54.034Z,26.30
2022-08-10T17:04:23.324Z,26.30
2022-08-10T17:07:14.706Z,26.30
2022-08-10T17:09:47.352Z,26.50
2022-08-10T17:12:18.240Z,26.40
2022-08-10T17:14:45.681Z,26.70
2022-08-10T17:17:27.285Z,26.80
2022-08-10T17:20:30.468Z,27.00
2022-08-10T17:22:54.481Z,27.20
2022-08-10T17:25:25.617Z,27.40
2022-08-10T17:28:16.561Z,27.50
2022-08-10T17:31:18.945Z,27.60
2022-08-10T17:33:58.122Z,27.90
2022-08-10T17:36:29.862Z,27.90
2022-08-10T17:38:57.177Z,28.10
2022-08-10T17:41:28.859Z,28.30
2022-08-10T17:44:06.487Z,28.50
2022-08-10T17:46:41.245Z,28.60
2022-08-10T17:49:10.769Z,28.80
2022-08-10T17:51:41.695Z,29.00
2022-08-10T17:54:23.665Z,29.20
2022-08-10T17:56:52.437Z,29.40
2022-08-10T17:59:24.562Z,29.40
2022-08-10T18:01:58.859Z,29.50
2022-08-10T18:04:35.527Z,29.60
2022-08-10T18:07:09.997Z,29.70
2022-08-10T18:09:42.399Z,29.80
2022-08-10T18:12:22.710Z,30.00
2022-08-10T18:14:56.544Z,30.00
2022-08-10T18:17:34.066Z,30.20
2022-08-10T18:20:07.912Z,30.40
2022-08-10T18:22:43.594Z,30.40
2022-08-10T18:25:17.705Z,30.80
2022-08-10T18:28:03.926Z,30.90
2022-08-10T18:30:45.091Z,31.00
2022-08-10T18:33:14.474Z,31.20
2022-08-10T18:35:43.704Z,31.40
2022-08-10T18:38:12.976Z,31.60
2022-08-10T18:40:43.969Z,31.70
2022-08-10T18:44:05.602Z,31.90
2022-08-10T18:46:00.800Z,32.00
2022-08-10T18:48:48.668Z,32.00
2022-08-10T18:51:22.297Z,32.10
2022-08-10T18:54:38.991Z,32.50
2022-08-10T18:57:17.565Z,32.70
2022-08-10T19:00:03.871Z,32.70
2022-08-10T19:02:53.003Z,32.90
2022-08-10T19:05:41.983Z,33.20
2022-08-10T19:08:31.255Z,33.50
2022-08-10T19:11:13.815Z,33.60
2022-08-10T19:14:06.722Z,33.60
2022-08-10T19:17:04.378Z,33.90
2022-08-10T19:20:00.821Z,33.90
2022-08-10T19:22:32.323Z,34.40
2022-08-10T19:25:17.041Z,34.50
2022-08-10T19:27:57.808Z,34.60
2022-08-10T19:30:45.236Z,35.00
2022-08-10T19:33:22.284Z,35.10
2022-08-10T19:36:16.748Z,35.70
2022-08-10T19:38:56.101Z,35.10
2022-08-10T19:41:41.900Z,35.60
2022-08-10T19:44:37.583Z,35.60
2022-08-10T19:47:28.569Z,35.40
2022-08-10T19:50:03.024Z,35.80
2022-08-10T19:52:38.531Z,36.10
2022-08-10T19:55:44.235Z,36.00
2022-08-10T19:58:29.536Z,36.10
2022-08-10T20:00:57.873Z,36.30
2022-08-10T20:03:33.797Z,36.70
2022-08-10T20:06:28.153Z,36.90
2022-08-10T20:09:13.710Z,36.80
2022-08-10T20:12:00.641Z,36.80
2022-08-10T20:14:49.520Z,37.00
2022-08-10T20:17:28.210Z,37.20
2022-08-10T20:20:10.774Z,37.10
2022-08-10T20:22:45.674Z,37.10
2022-08-10T20:25:17.941Z,37.70
2022-08-10T20:27:56.985Z,37.60
2022-08-10T20:30:32.068Z,37.80
2022-08-10T20:33:16.653Z,37.90
2022-08-10T20:35:56.278Z,38.60
2022-08-10T20:38:42.685Z,39.20
2022-08-10T20:41:28.452Z,38.80
2022-08-10T20:44:19.742Z,38.80
2022-08-10T20:47:03.973Z,39.40
2022-08-10T20:49:50.063Z,39.30
2022-08-10T20:52:20.945Z,39.80
2022-08-10T20:54:52.929Z,39.70
2022-08-10T20:57:57.654Z,40.00
2022-08-10T21:00:48.283Z,40.00
2022-08-10T21:03:33.216Z,40.20
2022-08-10T21:06:31.398Z,40.00
2022-08-10T21:09:20.567Z,40.30
2022-08-10T21:11:50.243Z,40.20
2022-08-10T21:14:52.036Z,40.30
2022-08-10T21:18:06.471Z,40.30
2022-08-10T21:20:42.024Z,40.60
2022-08-10T21:23:15.015Z,40.70
2022-08-10T21:26:15.862Z,40.90
2022-08-10T21:29:08.790Z,41.30
2022-08-10T21:32:08.837Z,41.20
2022-08-10T21:35:03.443Z,41.40
2022-08-10T21:37:44.650Z,41.80
2022-08-10T21:40:34.724Z,41.70
2022-08-10T21:43:52.979Z,41.70
2022-08-10T21:47:02.919Z,41.80
2022-08-10T21:50:07.948Z,41.60
2022-08-10T21:53:12.061Z,41.80
2022-08-10T21:56:16.199Z,42.30
2022-08-10T21:59:23.848Z,42.00
2022-08-10T22:02:21.617Z,42.10
2022-08-10T22:05:20.964Z,42.90
2022-08-10T22:08:15.579Z,42.60
2022-08-10T22:11:13.664Z,42.90
2022-08-10T22:14:05.848Z,42.70
2022-08-10T22:17:04.145Z,42.30
2022-08-10T22:19:56.566Z,42.50
2022-08-10T22:22:56.899Z,43.00
2022-08-10T22:29:16.415Z,43.90
2022-08-10T22:31:26.142Z,43.50
2022-08-10T22:32:02.011Z,44.00
2022-08-10T22:35:09.859Z,43.90
2022-08-10T22:38:14.099Z,44.20
2022-08-10T22:41:03.980Z,44.20
2022-08-10T22:43:50.960Z,44.70
2022-08-10T22:46:42.108Z,44.20
2022-08-10T22:49:10.786Z,44.80
2022-08-10T22:52:02.597Z,44.60
2022-08-10T22:55:23.667Z,44.70
2022-08-10T22:58:12.506Z,44.40
2022-08-10T23:00:40.554Z,44.80
2022-08-10T23:03:22.569Z,45.10
2022-08-10T23:05:56.270Z,45.20
2022-08-10T23:08:32.294Z,45.50
2022-08-10T23:11:08.259Z,45.60
2022-08-10T23:13:40.432Z,46.50
2022-08-10T23:16:48.480Z,45.60
2022-08-10T23:19:43.416Z,45.40
2022-08-10T23:22:19.397Z,45.50
2022-08-10T23:25:09.200Z,46.30
2022-08-10T23:27:40.710Z,46.50
2022-08-10T23:30:17.784Z,46.70
2022-08-10T23:32:49.070Z,47.00
2022-08-10T23:36:30.211Z,47.30
2022-08-10T23:38:07.323Z,47.50
2022-08-10T23:40:36.181Z,47.40
2022-08-10T23:43:05.457Z,47.50
2022-08-10T23:45:53.052Z,47.90
2022-08-10T23:48:23.735Z,48.00
2022-08-10T23:50:59.247Z,48.10
2022-08-10T23:53:32.933Z,48.30
2022-08-10T23:56:03.127Z,48.50
2022-08-10T23:58:45.625Z,48.60
